createdAt,value
2022-12-08T00:01:24.657Z,100258.44
2022-12-08T00:03:52.859Z,100253.84
2022-12-08T00:06:48.920Z,100250.09
2022-12-08T00:09:25.112Z,100247.94
2022-12-08T00:11:55.588Z,100242.59
2022-12-08T00:14:31.693Z,100242.84
2022-12-08T00:17:00.155Z,100239.09
2022-12-08T00:19:28.896Z,100241.53
2022-12-08T00:21:57.349Z,100245.09
2022-12-08T00:24:26.745Z,100253.38
2022-12-08T00:26:54.481Z,100247.63
2022-12-08T00:29:22.163Z,100246.19
2022-12-08T00:31:51.560Z,100246.84
2022-12-08T00:34:19.238Z,100233.31
2022-12-08T00:36:47.182Z,100227.91
2022-12-08T00:39:16.212Z,100224.84
2022-12-08T00:42:01.609Z,100230.91
2022-12-08T00:44:29.339Z,100227.16
2022-12-08T00:46:58.430Z,100224.00
2022-12-08T00:49:26.057Z,100224.84
2022-12-08T00:51:53.918Z,100221.56
2022-12-08T00:54:22.886Z,100220.84
2022-12-08T00:56:50.900Z,100225.91
2022-12-08T00:59:18.887Z,100228.75
2022-12-08T01:01:47.895Z,100223.34
2022-12-08T01:04:18.954Z,100219.22
2022-12-08T01:06:47.381Z,100214.13
2022-12-08T01:09:16.571Z,100222.56
2022-12-08T01:11:45.471Z,100216.91
2022-12-08T01:14:13.631Z,100209.25
2022-12-08T01:16:42.023Z,100214.41
2022-12-08T01:19:12.016Z,100215.41
2022-12-08T01:21:41.788Z,100214.56
2022-12-08T01:24:12.063Z,100216.44
2022-12-08T01:26:39.739Z,100218.94
2022-12-08T01:29:07.992Z,100214.13
2022-12-08T01:31:35.912Z,100208.34
2022-12-08T01:34:03.580Z,100216.84
2022-12-08T01:36:33.418Z,100212.63
2022-12-08T01:39:03.087Z,100204.38
2022-12-08T01:41:34.500Z,100212.63
2022-12-08T01:44:04.395Z,100216.31
2022-12-08T01:46:33.607Z,100204.66
2022-12-08T01:49:04.854Z,100200.84
2022-12-08T01:51:35.994Z,100195.00
2022-12-08T01:54:06.823Z,100193.34
2022-12-08T01:56:43.271Z,100199.34
2022-12-08T01:59:11.876Z,100186.38
2022-12-08T02:01:39.839Z,100187.22
2022-12-08T02:04:07.658Z,100184.06
2022-12-08T02:06:39.577Z,100174.97
2022-12-08T02:09:09.470Z,100177.75
2022-12-08T02:11:37.154Z,100166.34
2022-12-08T02:14:07.240Z,100164.78
2022-12-08T02:16:42.126Z,100159.84
2022-12-08T02:19:33.851Z,100166.66
2022-12-08T02:22:07.906Z,100165.47
2022-12-08T02:24:41.953Z,100161.81
2022-12-08T02:27:29.427Z,100154.31
2022-12-08T02:30:13.275Z,100147.00
2022-12-08T02:33:07.063Z,100147.41
2022-12-08T02:35:44.295Z,100145.75
2022-12-08T02:38:20.604Z,100146.00
2022-12-08T02:40:54.800Z,100138.19
2022-12-08T02:43:29.621Z,100144.78
2022-12-08T02:46:02.454Z,100131.81
2022-12-08T02:48:30.598Z,100140.75
2022-12-08T02:50:59.615Z,100124.41
2022-12-08T02:53:29.259Z,100122.97
2022-12-08T02:56:04.367Z,100124.63
2022-12-08T02:58:45.215Z,100115.41
2022-12-08T03:01:33.260Z,100121.53
2022-12-08T03:04:05.407Z,100112.78
2022-12-08T03:06:42.257Z,100110.91
2022-12-08T03:09:15.259Z,100101.53
2022-12-08T03:11:48.872Z,100101.53
2022-12-08T03:14:19.040Z,100097.97
2022-12-08T03:16:49.768Z,100092.97
2022-12-08T03:19:20.383Z,100093.44
2022-12-08T03:21:53.373Z,100089.91
2022-12-08T03:24:24.064Z,100082.81
2022-12-08T03:26:56.274Z,100079.88
2022-12-08T03:29:24.457Z,100082.13
2022-12-08T03:31:56.343Z,100082.25
2022-12-08T03:34:26.325Z,100081.06
2022-12-08T03:36:55.850Z,100082.19
2022-12-08T03:39:24.314Z,100075.59
2022-12-08T03:41:51.935Z,100074.63
2022-12-08T03:44:19.640Z,100070.56
2022-12-08T03:46:47.260Z,100065.31
2022-12-08T03:49:14.947Z,100061.69
2022-12-08T03:51:42.600Z,100051.34
2022-12-08T03:54:11.803Z,100056.69
2022-12-08T03:56:40.630Z,100047.19
2022-12-08T03:59:08.850Z,100047.41
2022-12-08T04:01:36.543Z,100045.31
2022-12-08T04:04:04.444Z,100035.56
2022-12-08T04:06:32.062Z,100041.69
2022-12-08T04:08:59.903Z,100033.00
2022-12-08T04:11:28.843Z,100016.63
2022-12-08T04:13:56.490Z,100026.34
2022-12-08T04:16:26.534Z,100027.09
2022-12-08T04:18:55.324Z,100025.78
2022-12-08T04:21:23.196Z,100014.63
2022-12-08T04:23:52.920Z,100018.84
2022-12-08T04:26:23.849Z,100014.50
2022-12-08T04:28:52.838Z,100015.47
2022-12-08T04:31:20.535Z,100024.00
2022-12-08T04:33:48.656Z,100012.84
2022-12-08T04:36:16.351Z,100017.09
2022-12-08T04:38:44.043Z,100013.19
2022-12-08T04:41:11.667Z,100017.09
2022-12-08T04:43:39.334Z,100007.44
2022-12-08T04:46:09.943Z,100012.00
2022-12-08T04:48:38.659Z,100016.59
2022-12-08T04:51:06.877Z,100006.63
2022-12-08T04:53:35.020Z,100002.88
2022-12-08T04:56:02.665Z,100002.53
2022-12-08T04:58:30.345Z,99995.69
2022-12-08T05:00:58.005Z,99999.81
2022-12-08T05:03:28.828Z,100001.13
2022-12-08T05:05:56.798Z,99999.38
2022-12-08T05:08:24.637Z,100002.66
2022-12-08T05:10:52.341Z,100003.56
2022-12-08T05:13:19.983Z,99999.44
2022-12-08T05:15:47.603Z,100002.28
2022-12-08T05:18:15.639Z,99997.97
2022-12-08T05:20:44.620Z,100002.56
2022-12-08T05:23:12.278Z,99995.94
2022-12-08T05:25:39.895Z,100000.44
2022-12-08T05:28:39.450Z,99996.22
2022-12-08T05:30:55.242Z,99998.94
2022-12-08T05:33:22.864Z,99992.09
2022-12-08T05:35:51.897Z,99995.75
2022-12-08T05:38:20.352Z,99995.38
2022-12-08T05:40:47.981Z,99989.06
2022-12-08T05:43:15.871Z,99991.75
2022-12-08T05:45:43.714Z,99985.22
2022-12-08T05:48:11.441Z,99991.88
2022-12-08T05:50:39.131Z,99982.84
2022-12-08T05:53:08.083Z,99990.00
2022-12-08T05:55:35.717Z,99988.25
2022-12-08T05:58:07.801Z,99985.91
2022-12-08T06:00:35.802Z,99983.81
2022-12-08T06:03:03.550Z,99978.53
2022-12-08T06:05:33.353Z,99978.41
2022-12-08T06:08:01.033Z,99979.50
2022-12-08T06:10:30.185Z,99981.22
2022-12-08T06:12:58.011Z,99978.41
2022-12-08T06:15:25.660Z,99978.78
2022-12-08T06:17:53.381Z,99991.94
2022-12-08T06:20:21.067Z,99984.53
2022-12-08T06:22:48.737Z,99979.59
2022-12-08T06:25:16.503Z,99981.00
2022-12-08T06:27:45.471Z,99973.25
2022-12-08T06:30:13.618Z,99985.38
2022-12-08T06:32:41.335Z,99979.97
2022-12-08T06:35:09.925Z,99990.97
2022-12-08T06:37:38.074Z,99984.91
2022-12-08T06:40:07.132Z,99989.25
2022-12-08T06:42:47.609Z,99982.09
2022-12-08T06:45:18.487Z,99985.00
2022-12-08T06:47:46.178Z,99975.84
2022-12-08T06:50:14.726Z,99978.31
2022-12-08T06:52:51.730Z,99975.84
2022-12-08T06:55:57.410Z,99977.16
2022-12-08T06:58:14.726Z,99975.38
2022-12-08T07:00:44.129Z,99983.50
2022-12-08T07:03:12.597Z,99989.13
2022-12-08T07:05:40.585Z,99989.38
2022-12-08T07:08:09.924Z,99995.59
2022-12-08T07:10:38.144Z,99989.25
2022-12-08T07:13:05.946Z,99984.31
2022-12-08T07:15:33.737Z,99995.84
2022-12-08T07:18:02.693Z,99993.59
2022-12-08T07:20:30.356Z,99991.00
2022-12-08T07:22:58.059Z,99999.00
2022-12-08T07:25:25.711Z,99998.66
2022-12-08T07:27:53.451Z,99993.97
2022-12-08T07:30:21.239Z,100002.78
2022-12-08T07:32:48.962Z,100001.59
2022-12-08T07:35:18.131Z,99998.31
2022-12-08T07:37:45.778Z,99998.53
2022-12-08T07:40:14.709Z,99999.47
2022-12-08T07:42:42.653Z,100000.28
2022-12-08T07:45:10.993Z,99996.88
2022-12-08T07:47:38.625Z,99995.94
2022-12-08T07:50:07.913Z,99987.97
2022-12-08T07:52:36.991Z,99996.31
2022-12-08T07:55:05.043Z,99994.06
2022-12-08T07:57:32.730Z,99991.00
2022-12-08T08:00:00.378Z,99988.31
2022-12-08T08:02:28.165Z,99991.00
2022-12-08T08:04:56.007Z,100000.53
2022-12-08T08:07:23.679Z,99999.13
2022-12-08T08:09:52.706Z,99999.22
2022-12-08T08:12:31.357Z,100000.19
2022-12-08T08:14:59.998Z,100000.91
2022-12-08T08:17:27.761Z,99999.97
2022-12-08T08:19:55.526Z,100000.75
2022-12-08T08:22:23.196Z,100009.00
2022-12-08T08:24:52.142Z,100007.69
2022-12-08T08:27:19.907Z,100013.00
2022-12-08T08:29:47.839Z,100006.88
2022-12-08T08:32:15.458Z,100014.03
2022-12-08T08:34:43.078Z,100007.09
2022-12-08T08:37:10.812Z,100009.59
2022-12-08T08:39:38.506Z,100008.84
2022-12-08T08:42:07.597Z,100006.28
2022-12-08T08:44:35.238Z,100002.41
2022-12-08T08:47:02.863Z,99996.41
2022-12-08T08:49:30.698Z,99998.03
2022-12-08T08:51:58.372Z,100005.66
2022-12-08T08:54:26.087Z,100009.09
2022-12-08T08:56:53.686Z,100003.78
2022-12-08T08:59:22.912Z,100008.50
2022-12-08T09:01:50.617Z,100002.50
2022-12-08T09:04:18.680Z,100005.44
2022-12-08T09:06:46.396Z,100011.31
2022-12-08T09:09:14.005Z,99993.53
2022-12-08T09:11:41.685Z,99997.41
2022-12-08T09:14:11.812Z,99991.91
2022-12-08T09:16:42.499Z,99991.31
2022-12-08T09:19:10.753Z,99994.47
2022-12-08T09:21:38.438Z,99983.06
2022-12-08T09:24:06.482Z,99972.16
2022-12-08T09:26:34.072Z,99974.84
2022-12-08T09:29:01.784Z,99981.31
2022-12-08T09:31:29.472Z,99981.63
2022-12-08T09:33:59.255Z,99974.19
2022-12-08T09:36:27.052Z,99973.34
2022-12-08T09:38:54.811Z,99971.91
2022-12-08T09:41:38.922Z,99969.97
2022-12-08T09:44:44.110Z,99971.16
2022-12-08T09:47:19.909Z,99969.53
2022-12-08T09:49:54.058Z,99970.78
2022-12-08T09:52:26.235Z,99961.59
2022-12-08T09:54:54.008Z,99966.69
2022-12-08T09:57:24.696Z,99970.53
2022-12-08T09:59:56.403Z,99970.63
2022-12-08T10:02:25.185Z,99956.38
2022-12-08T10:04:56.168Z,99965.09
2022-12-08T10:07:31.932Z,99959.47
2022-12-08T10:10:04.663Z,99955.41
2022-12-08T10:12:40.322Z,99955.75
2022-12-08T10:15:29.821Z,99957.72
2022-12-08T10:18:01.667Z,99953.94
2022-12-08T10:20:37.747Z,99951.94
2022-12-08T10:23:10.283Z,99957.97
2022-12-08T10:25:42.412Z,99954.28
2022-12-08T10:28:10.679Z,99947.31
2022-12-08T10:30:39.088Z,99948.81
2022-12-08T10:33:10.909Z,99952.00
2022-12-08T10:35:47.350Z,99948.47
2022-12-08T10:38:21.512Z,99946.75
2022-12-08T10:40:50.752Z,99947.88
2022-12-08T10:43:21.727Z,99938.13
2022-12-08T10:45:49.535Z,99931.34
2022-12-08T10:48:20.447Z,99929.22
2022-12-08T10:50:55.417Z,99928.06
2022-12-08T10:53:25.760Z,99926.16
2022-12-08T10:56:06.325Z,99920.31
2022-12-08T10:58:35.763Z,99922.47
2022-12-08T11:01:07.197Z,99922.06
2022-12-08T11:03:38.813Z,99923.72
2022-12-08T11:06:16.532Z,99922.66
2022-12-08T11:08:49.611Z,99921.59
2022-12-08T11:11:17.943Z,99911.63
2022-12-08T11:13:45.695Z,99912.22
2022-12-08T11:16:15.988Z,99915.75
2022-12-08T11:18:46.934Z,99918.53
2022-12-08T11:21:17.607Z,99911.41
2022-12-08T11:23:48.877Z,99914.91
2022-12-08T11:26:30.585Z,99899.50
2022-12-08T11:28:58.599Z,99911.00
2022-12-08T11:31:31.266Z,99906.56
2022-12-08T11:33:59.164Z,99905.00
2022-12-08T11:36:31.306Z,99905.66
2022-12-08T11:39:01.781Z,99902.72
2022-12-08T11:41:32.271Z,99897.53
2022-12-08T11:44:06.798Z,99898.94
2022-12-08T11:46:40.305Z,99902.38
2022-12-08T11:49:12.728Z,99901.22
2022-12-08T11:51:49.194Z,99910.25
2022-12-08T11:54:23.543Z,99907.06
2022-12-08T11:56:54.189Z,99909.56
2022-12-08T11:59:29.690Z,99906.47
2022-12-08T12:01:59.144Z,99900.56
2022-12-08T12:04:36.772Z,99900.66
2022-12-08T12:07:37.320Z,99894.09
2022-12-08T12:10:12.116Z,99904.09
2022-12-08T12:12:54.227Z,99894.09
2022-12-08T12:15:52.224Z,99900.31
2022-12-08T12:18:28.117Z,99908.28
2022-12-08T12:21:00.416Z,99907.78
2022-12-08T12:23:37.177Z,99900.81
2022-12-08T12:26:08.713Z,99897.53
2022-12-08T12:28:42.792Z,99898.84
2022-12-08T12:31:13.234Z,99902.56
2022-12-08T12:33:40.731Z,99906.97
2022-12-08T12:36:10.857Z,99905.66
2022-12-08T12:39:04.297Z,99906.25
2022-12-08T12:41:43.891Z,99904.00
2022-12-08T12:44:37.615Z,99904.59
2022-12-08T12:47:08.477Z,99900.50
2022-12-08T12:50:07.807Z,99897.78
2022-12-08T12:52:48.921Z,99901.72
2022-12-08T12:55:55.104Z,99890.31
2022-12-08T12:58:50.774Z,99894.50
2022-12-08T13:01:38.577Z,99903.19
2022-12-08T13:04:09.073Z,99893.28
2022-12-08T13:06:38.799Z,99894.59
2022-12-08T13:09:07.860Z,99901.56
2022-12-08T13:11:50.589Z,99900.22
2022-12-08T13:14:29.405Z,99891.81
2022-12-08T13:17:00.093Z,99892.03
2022-12-08T13:19:31.955Z,99893.69
2022-12-08T13:22:00.337Z,99894.44
2022-12-08T13:24:35.444Z,99893.44
2022-12-08T13:27:35.484Z,99888.38
2022-12-08T13:30:39.963Z,99895.41
2022-12-08T13:33:18.874Z,99892.03
2022-12-08T13:35:54.530Z,99892.59
2022-12-08T13:38:27.518Z,99893.38
2022-12-08T13:40:57.016Z,99892.38
2022-12-08T13:43:45.053Z,99888.69
2022-12-08T13:47:09.322Z,99895.97
2022-12-08T13:50:49.603Z,99896.66
2022-12-08T13:55:49.842Z,99903.19
2022-12-08T13:57:38.230Z,99899.44
2022-12-08T14:00:17.056Z,99897.69
2022-12-08T14:02:48.438Z,99899.25
2022-12-08T14:05:23.477Z,99900.22
2022-12-08T14:07:58.297Z,99901.00
2022-12-08T14:10:28.788Z,99896.16
2022-12-08T14:12:57.650Z,99897.69
2022-12-08T14:15:30.234Z,99894.31
2022-12-08T14:18:02.333Z,99898.09
2022-12-08T14:20:33.808Z,99901.38
2022-12-08T14:23:10.849Z,99903.00
2022-12-08T14:25:39.284Z,99900.00
2022-12-08T14:28:07.402Z,99899.66
2022-12-08T14:30:37.899Z,99904.28
2022-12-08T14:33:05.945Z,99904.00
2022-12-08T14:35:36.870Z,99909.19
2022-12-08T14:38:07.293Z,99897.38
2022-12-08T14:40:36.349Z,99905.78
2022-12-08T14:43:16.659Z,99901.72
2022-12-08T14:45:53.355Z,99917.88
2022-12-08T14:48:24.202Z,99913.44
2022-12-08T14:51:06.807Z,99917.81
2022-12-08T14:53:42.387Z,99914.75
2022-12-08T14:56:20.092Z,99919.34
2022-12-08T14:58:50.284Z,99920.75
2022-12-08T15:01:24.717Z,99922.53
2022-12-08T15:03:54.993Z,99933.63
2022-12-08T15:06:23.813Z,99925.41
2022-12-08T15:08:54.548Z,99924.81
2022-12-08T15:11:35.315Z,99930.06
2022-12-08T15:14:03.707Z,99933.13
2022-12-08T15:16:40.711Z,99933.94
2022-12-08T15:19:23.337Z,99941.91
2022-12-08T15:21:52.468Z,99938.03
2022-12-08T15:24:21.875Z,99936.97
2022-12-08T15:26:52.155Z,99937.22
2022-12-08T15:29:22.815Z,99935.16
2022-12-08T15:31:54.398Z,99938.44
2022-12-08T15:34:22.695Z,99936.56
2022-12-08T15:36:53.158Z,99940.25
2022-12-08T15:39:25.835Z,99937.28
2022-12-08T15:41:53.730Z,99938.09
2022-12-08T15:44:21.576Z,99942.69
2022-12-08T15:46:50.057Z,99945.16
2022-12-08T15:49:21.647Z,99958.47
2022-12-08T15:51:50.293Z,99955.84
2022-12-08T15:54:18.170Z,99957.00
2022-12-08T15:57:17.201Z,99955.44
2022-12-08T15:59:36.530Z,99958.16
2022-12-08T16:02:04.919Z,99956.41
2022-12-08T16:07:26.175Z,99950.56
2022-12-08T16:09:55.355Z,99956.41
2022-12-08T16:13:54.687Z,99962.31
2022-12-08T16:15:55.214Z,99958.25
2022-12-08T16:18:28.145Z,99957.91
2022-12-08T16:21:31.659Z,99962.88
2022-12-08T16:23:46.082Z,99968.50
2022-12-08T16:26:35.684Z,99966.94
2022-12-08T16:29:04.300Z,99968.91
2022-12-08T16:31:32.402Z,99972.66
2022-12-08T16:34:00.369Z,99973.72
2022-12-08T16:36:29.795Z,99970.44
2022-12-08T16:38:57.864Z,99972.31
2022-12-08T16:41:43.210Z,99970.09
2022-12-08T16:44:11.060Z,99973.03
2022-12-08T16:46:39.174Z,99976.56
2022-12-08T16:49:10.607Z,99972.81
2022-12-08T16:51:39.791Z,99977.50
2022-12-08T16:54:07.938Z,99984.91
2022-12-08T16:56:36.042Z,99977.28
2022-12-08T16:59:04.084Z,99969.88
2022-12-08T17:01:32.198Z,99976.47
2022-12-08T17:04:30.043Z,99974.47
2022-12-08T17:06:52.846Z,99982.34
2022-12-08T17:09:20.780Z,99984.81
2022-12-08T17:11:48.819Z,99991.84
2022-12-08T17:14:16.834Z,99997.25
2022-12-08T17:16:46.168Z,99992.72
2022-12-08T17:19:15.383Z,99993.16
2022-12-08T17:21:44.375Z,99986.25
2022-12-08T17:24:17.130Z,99995.44
2022-12-08T17:26:48.097Z,99993.75
2022-12-08T17:29:16.140Z,100002.09
2022-12-08T17:31:43.952Z,100008.34
2022-12-08T17:34:12.314Z,100000.69
2022-12-08T17:36:40.097Z,100005.78
2022-12-08T17:39:11.016Z,100012.94
2022-12-08T17:41:44.394Z,100013.75
2022-12-08T17:44:14.207Z,100006.59
2022-12-08T17:46:46.393Z,100010.03
2022-12-08T17:49:20.687Z,100004.84
2022-12-08T17:51:49.498Z,100008.97
2022-12-08T17:54:18.312Z,100017.09
2022-12-08T17:56:47.600Z,100010.63
2022-12-08T17:59:15.507Z,100012.00
2022-12-08T18:01:43.786Z,100015.19
2022-12-08T18:04:13.018Z,100014.38
2022-12-08T18:06:41.478Z,100013.78
2022-12-08T18:09:09.568Z,100010.16
2022-12-08T18:11:37.823Z,100018.75
2022-12-08T18:14:10.422Z,100020.59
2022-12-08T18:16:39.813Z,100018.28
2022-12-08T18:19:08.982Z,100015.78
2022-12-08T18:21:37.487Z,100020.03
2022-12-08T18:24:06.159Z,100014.84
2022-12-08T18:26:34.199Z,100018.38
2022-12-08T18:29:02.374Z,100008.84
2022-12-08T18:31:31.801Z,100015.81
2022-12-08T18:33:59.966Z,100009.81
2022-12-08T18:36:27.975Z,100014.41
2022-12-08T18:38:56.130Z,100014.53
2022-12-08T18:41:25.987Z,100019.19
2022-12-08T18:43:55.276Z,100024.59
2022-12-08T18:46:23.378Z,100026.16
2022-12-08T18:48:53.392Z,100028.50
2022-12-08T18:51:23.770Z,100021.09
2022-12-08T18:53:51.930Z,100019.09
2022-12-08T18:56:23.349Z,100029.78
2022-12-08T18:58:51.306Z,100031.06
2022-12-08T19:01:19.280Z,100037.41
2022-12-08T19:04:12.026Z,100031.19
2022-12-08T19:06:39.141Z,100037.28
2022-12-08T19:09:07.390Z,100035.75
2022-12-08T19:11:35.274Z,100032.94
2022-12-08T19:14:03.262Z,100041.25
2022-12-08T19:16:31.281Z,100044.41
2022-12-08T19:18:59.504Z,100050.06
2022-12-08T19:21:27.174Z,100046.75
2022-12-08T19:23:58.317Z,100047.94
2022-12-08T19:26:26.294Z,100056.06
2022-12-08T19:28:53.926Z,100060.06
2022-12-08T19:31:21.673Z,100065.47
2022-12-08T19:33:49.377Z,100064.78
2022-12-08T19:36:19.527Z,100067.38
2022-12-08T19:39:04.695Z,100071.59
2022-12-08T19:41:51.714Z,100074.19
2022-12-08T19:44:39.047Z,100070.31
2022-12-08T19:47:06.932Z,100070.53
2022-12-08T19:49:34.612Z,100078.22
2022-12-08T19:52:02.359Z,100084.69
2022-12-08T19:54:30.080Z,100087.97
2022-12-08T19:56:59.126Z,100083.38
2022-12-08T19:59:27.034Z,100087.38
2022-12-08T20:01:55.668Z,100081.50
2022-12-08T20:04:23.705Z,100086.44
2022-12-08T20:06:52.396Z,100094.44
2022-12-08T20:09:20.406Z,100087.81
2022-12-08T20:11:48.097Z,100087.69
2022-12-08T20:14:17.624Z,100082.88
2022-12-08T20:16:45.424Z,100087.09
2022-12-08T20:19:13.095Z,100088.84
2022-12-08T20:21:40.940Z,100093.31
2022-12-08T20:24:09.028Z,100099.00
2022-12-08T20:26:36.777Z,100090.56
2022-12-08T20:29:04.445Z,100089.94
2022-12-08T20:31:34.195Z,100084.22
2022-12-08T20:34:02.505Z,100093.66
2022-12-08T20:36:31.328Z,100093.53
2022-12-08T20:38:59.054Z,100090.50
2022-12-08T20:41:26.746Z,100095.72
2022-12-08T20:43:55.047Z,100098.28
2022-12-08T20:46:22.867Z,100102.72
2022-12-08T20:48:52.153Z,100106.47
2022-12-08T20:51:20.855Z,100105.53
2022-12-08T20:53:48.705Z,100110.41
2022-12-08T20:56:17.509Z,100119.75
2022-12-08T20:58:45.758Z,100122.06
2022-12-08T21:01:15.502Z,100120.72
2022-12-08T21:03:44.101Z,100124.69
2022-12-08T21:06:14.140Z,100120.00
2022-12-08T21:08:42.904Z,100126.84
2022-12-08T21:11:11.726Z,100126.72
2022-12-08T21:13:40.251Z,100128.81
2022-12-08T21:16:09.323Z,100130.31
2022-12-08T21:18:39.698Z,100128.50
2022-12-08T21:21:09.718Z,100132.84
2022-12-08T21:23:39.029Z,100139.06
2022-12-08T21:26:16.562Z,100133.06
2022-12-08T21:28:44.530Z,100136.81
2022-12-08T21:31:14.855Z,100136.00
2022-12-08T21:33:42.718Z,100136.22
2022-12-08T21:36:14.414Z,100141.38
2022-12-08T21:38:44.586Z,100137.47
2022-12-08T21:41:15.513Z,100135.81
2022-12-08T21:43:43.855Z,100138.16
2022-12-08T21:46:16.193Z,100141.28
2022-12-08T21:48:43.969Z,100148.78
2022-12-08T21:51:11.658Z,100143.00
2022-12-08T21:53:39.362Z,100147.09
2022-12-08T21:56:10.766Z,100156.78
2022-12-08T21:58:39.791Z,100158.22
2022-12-08T22:01:07.930Z,100156.19
2022-12-08T22:03:36.432Z,100151.69
2022-12-08T22:06:07.836Z,100153.38
2022-12-08T22:08:35.995Z,100150.31
2022-12-08T22:11:04.157Z,100150.94
2022-12-08T22:13:35.018Z,100152.34
2022-12-08T22:16:06.161Z,100148.59
2022-12-08T22:18:35.480Z,100153.19
2022-12-08T22:21:03.933Z,100163.34
2022-12-08T22:23:31.611Z,100163.13
2022-12-08T22:26:00.070Z,100152.63
2022-12-08T22:28:29.149Z,100156.81
2022-12-08T22:30:58.322Z,100160.09
2022-12-08T22:33:26.146Z,100157.84
2022-12-08T22:35:57.990Z,100160.53
2022-12-08T22:38:26.194Z,100156.81
2022-12-08T22:40:54.277Z,100157.00
2022-12-08T22:43:23.241Z,100156.22
2022-12-08T22:45:51.350Z,100161.84
2022-12-08T22:48:20.486Z,100157.50
2022-12-08T22:50:48.196Z,100151.66
2022-12-08T22:53:16.132Z,100159.09
2022-12-08T22:55:44.210Z,100158.50
2022-12-08T22:58:12.011Z,100158.72
2022-12-08T23:00:40.141Z,100161.03
2022-12-08T23:03:08.158Z,100162.94
2022-12-08T23:05:39.647Z,100156.13
2022-12-08T23:08:08.782Z,100153.44
2022-12-08T23:10:37.277Z,100156.34
2022-12-08T23:13:05.047Z,100154.69
2022-12-08T23:15:33.241Z,100155.91
2022-12-08T23:18:01.206Z,100151.34
2022-12-08T23:20:29.113Z,100153.91
2022-12-08T23:22:58.316Z,100155.03
2022-12-08T23:25:26.028Z,100150.34
2022-12-08T23:27:53.805Z,100144.34
2022-12-08T23:30:21.805Z,100143.53
2022-12-08T23:32:49.876Z,100150.63
2022-12-08T23:35:17.615Z,100146.72
2022-12-08T23:37:45.380Z,100138.63
2022-12-08T23:40:14.740Z,100134.66
2022-12-08T23:42:42.503Z,100142.56
2022-12-08T23:45:11.028Z,100147.19
2022-12-08T23:47:38.694Z,100143.06
2022-12-08T23:50:08.218Z,100144.69
2022-12-08T23:52:37.624Z,100137.66
2022-12-08T23:55:08.367Z,100143.25
2022-12-08T23:57:37.711Z,100144.94
